sensor_id;sensor_type;location;lat;lon;timestamp;P1;durP1;ratioP1;P2;durP2;ratioP2
17207;SDS011;8720;48.488;9.202;2024-03-06T00:01:10;6.23;;;5.43;;
17207;SDS011;8720;48.488;9.202;2024-03-06T00:19:46;5.47;;;4.83;;
17207;SDS011;8720;48.488;9.202;2024-03-06T00:22:14;6.03;;;5.20;;
17207;SDS011;8720;48.488;9.202;2024-03-06T00:24:43;5.50;;;5.00;;
17207;SDS011;8720;48.488;9.202;2024-03-06T00:27:11;7.40;;;6.00;;
17207;SDS011;8720;48.488;9.202;2024-03-06T00:29:40;5.73;;;5.20;;
17207;SDS011;8720;48.488;9.202;2024-03-06T00:32:07;5.80;;;5.13;;
17207;SDS011;8720;48.488;9.202;2024-03-06T00:34:36;6.93;;;5.13;;
17207;SDS011;8720;48.488;9.202;2024-03-06T00:37:03;6.00;;;5.10;;
17207;SDS011;8720;48.488;9.202;2024-03-06T00:39:31;6.10;;;5.50;;
17207;SDS011;8720;48.488;9.202;2024-03-06T00:41:58;5.90;;;5.13;;
17207;SDS011;8720;48.488;9.202;2024-03-06T00:44:25;5.20;;;4.70;;
17207;SDS011;8720;48.488;9.202;2024-03-06T00:46:53;6.70;;;5.57;;
17207;SDS011;8720;48.488;9.202;2024-03-06T00:49:20;5.97;;;5.10;;
17207;SDS011;8720;48.488;9.202;2024-03-06T00:51:49;5.90;;;5.30;;
17207;SDS011;8720;48.488;9.202;2024-03-06T00:54:16;6.37;;;5.60;;
17207;SDS011;8720;48.488;9.202;2024-03-06T00:56:44;5.80;;;5.07;;
17207;SDS011;8720;48.488;9.202;2024-03-06T00:59:11;5.13;;;4.63;;
17207;SDS011;8720;48.488;9.202;2024-03-06T01:01:38;6.87;;;5.37;;
17207;SDS011;8720;48.488;9.202;2024-03-06T01:04:06;6.13;;;5.13;;
17207;SDS011;8720;48.488;9.202;2024-03-06T01:06:33;4.70;;;4.30;;
17207;SDS011;8720;48.488;9.202;2024-03-06T01:09:02;5.83;;;5.23;;
17207;SDS011;8720;48.488;9.202;2024-03-06T01:11:29;6.53;;;4.93;;
17207;SDS011;8720;48.488;9.202;2024-03-06T01:13:57;6.30;;;4.90;;
17207;SDS011;8720;48.488;9.202;2024-03-06T01:16:24;8.10;;;5.73;;
17207;SDS011;8720;48.488;9.202;2024-03-06T01:18:52;4.83;;;4.33;;
17207;SDS011;8720;48.488;9.202;2024-03-06T01:21:19;6.10;;;5.50;;
17207;SDS011;8720;48.488;9.202;2024-03-06T01:23:46;5.67;;;5.17;;
17207;SDS011;8720;48.488;9.202;2024-03-06T01:26:15;6.53;;;4.93;;
17207;SDS011;8720;48.488;9.202;2024-03-06T01:28:43;5.47;;;4.90;;
17207;SDS011;8720;48.488;9.202;2024-03-06T01:31:10;5.83;;;5.27;;
17207;SDS011;8720;48.488;9.202;2024-03-06T01:33:38;5.63;;;5.03;;
17207;SDS011;8720;48.488;9.202;2024-03-06T01:36:05;6.40;;;5.73;;
17207;SDS011;8720;48.488;9.202;2024-03-06T01:38:33;6.67;;;5.97;;
17207;SDS011;8720;48.488;9.202;2024-03-06T01:41:00;6.00;;;5.40;;
17207;SDS011;8720;48.488;9.202;2024-03-06T01:43:36;5.50;;;4.97;;
17207;SDS011;8720;48.488;9.202;2024-03-06T01:46:04;6.00;;;5.40;;
17207;SDS011;8720;48.488;9.202;2024-03-06T01:48:32;5.80;;;4.70;;
17207;SDS011;8720;48.488;9.202;2024-03-06T01:51:01;5.40;;;4.90;;
17207;SDS011;8720;48.488;9.202;2024-03-06T01:53:31;6.30;;;5.50;;
17207;SDS011;8720;48.488;9.202;2024-03-06T01:56:00;6.50;;;5.40;;
17207;SDS011;8720;48.488;9.202;2024-03-06T01:58:32;6.43;;;5.10;;
17207;SDS011;8720;48.488;9.202;2024-03-06T02:01:00;6.03;;;4.70;;
17207;SDS011;8720;48.488;9.202;2024-03-06T02:03:28;5.60;;;5.10;;
17207;SDS011;8720;48.488;9.202;2024-03-06T02:05:58;5.80;;;5.17;;
17207;SDS011;8720;48.488;9.202;2024-03-06T02:08:28;5.40;;;4.90;;
17207;SDS011;8720;48.488;9.202;2024-03-06T02:10:56;5.67;;;5.07;;
17207;SDS011;8720;48.488;9.202;2024-03-06T02:13:25;5.60;;;5.00;;
17207;SDS011;8720;48.488;9.202;2024-03-06T02:15:54;5.80;;;5.17;;
17207;SDS011;8720;48.488;9.202;2024-03-06T02:18:21;6.23;;;5.53;;
17207;SDS011;8720;48.488;9.202;2024-03-06T02:20:50;5.47;;;4.97;;
17207;SDS011;8720;48.488;9.202;2024-03-06T02:23:17;7.13;;;5.30;;
17207;SDS011;8720;48.488;9.202;2024-03-06T02:25:47;5.30;;;4.80;;
17207;SDS011;8720;48.488;9.202;2024-03-06T02:28:15;4.20;;;3.73;;
17207;SDS011;8720;48.488;9.202;2024-03-06T02:30:43;4.30;;;3.50;;
17207;SDS011;8720;48.488;9.202;2024-03-06T02:33:10;4.20;;;3.00;;
17207;SDS011;8720;48.488;9.202;2024-03-06T02:35:39;4.17;;;3.80;;
17207;SDS011;8720;48.488;9.202;2024-03-06T02:38:07;3.43;;;3.13;;
17207;SDS011;8720;48.488;9.202;2024-03-06T02:40:35;4.40;;;3.60;;
17207;SDS011;8720;48.488;9.202;2024-03-06T02:43:02;5.70;;;3.60;;
17207;SDS011;8720;48.488;9.202;2024-03-06T02:45:30;4.00;;;3.40;;
17207;SDS011;8720;48.488;9.202;2024-03-06T02:47:57;4.50;;;3.93;;
17207;SDS011;8720;48.488;9.202;2024-03-06T02:50:25;4.87;;;4.37;;
17207;SDS011;8720;48.488;9.202;2024-03-06T02:52:52;4.00;;;3.70;;
17207;SDS011;8720;48.488;9.202;2024-03-06T02:55:21;4.67;;;4.17;;
17207;SDS011;8720;48.488;9.202;2024-03-06T02:57:49;5.00;;;4.10;;
17207;SDS011;8720;48.488;9.202;2024-03-06T03:05:33;5.03;;;4.53;;
17207;SDS011;8720;48.488;9.202;2024-03-06T03:08:00;5.10;;;4.20;;
17207;SDS011;8720;48.488;9.202;2024-03-06T03:10:30;4.63;;;4.20;;
17207;SDS011;8720;48.488;9.202;2024-03-06T03:12:59;5.30;;;4.80;;
17207;SDS011;8720;48.488;9.202;2024-03-06T03:15:27;5.53;;;5.03;;
17207;SDS011;8720;48.488;9.202;2024-03-06T03:17:54;5.10;;;4.60;;
17207;SDS011;8720;48.488;9.202;2024-03-06T03:20:21;4.60;;;4.20;;
17207;SDS011;8720;48.488;9.202;2024-03-06T03:22:49;5.07;;;4.57;;
17207;SDS011;8720;48.488;9.202;2024-03-06T03:25:16;5.60;;;4.83;;
17207;SDS011;8720;48.488;9.202;2024-03-06T03:27:45;7.60;;;4.43;;
17207;SDS011;8720;48.488;9.202;2024-03-06T03:30:12;5.00;;;4.30;;
17207;SDS011;8720;48.488;9.202;2024-03-06T03:32:40;5.07;;;4.63;;
17207;SDS011;8720;48.488;9.202;2024-03-06T03:35:08;4.83;;;4.33;;
17207;SDS011;8720;48.488;9.202;2024-03-06T03:37:35;4.97;;;4.53;;
17207;SDS011;8720;48.488;9.202;2024-03-06T03:40:03;4.97;;;4.50;;
17207;SDS011;8720;48.488;9.202;2024-03-06T03:42:32;4.60;;;4.20;;
17207;SDS011;8720;48.488;9.202;2024-03-06T03:45:01;5.03;;;4.30;;
17207;SDS011;8720;48.488;9.202;2024-03-06T03:47:29;5.33;;;4.80;;
17207;SDS011;8720;48.488;9.202;2024-03-06T03:49:57;7.53;;;4.70;;
17207;SDS011;8720;48.488;9.202;2024-03-06T03:52:24;4.57;;;3.97;;
17207;SDS011;8720;48.488;9.202;2024-03-06T03:54:52;5.57;;;5.00;;
17207;SDS011;8720;48.488;9.202;2024-03-06T03:57:19;4.70;;;4.30;;
17207;SDS011;8720;48.488;9.202;2024-03-06T03:59:46;5.30;;;4.20;;
17207;SDS011;8720;48.488;9.202;2024-03-06T04:02:15;4.70;;;4.20;;
17207;SDS011;8720;48.488;9.202;2024-03-06T04:04:43;5.53;;;4.90;;
17207;SDS011;8720;48.488;9.202;2024-03-06T04:07:10;4.80;;;4.40;;
17207;SDS011;8720;48.488;9.202;2024-03-06T04:09:41;5.07;;;4.60;;
17207;SDS011;8720;48.488;9.202;2024-03-06T04:12:08;5.63;;;4.50;;
17207;SDS011;8720;48.488;9.202;2024-03-06T04:14:36;4.37;;;3.97;;
17207;SDS011;8720;48.488;9.202;2024-03-06T04:17:03;5.23;;;4.73;;
17207;SDS011;8720;48.488;9.202;2024-03-06T04:19:32;5.20;;;4.70;;
17207;SDS011;8720;48.488;9.202;2024-03-06T04:22:00;5.57;;;5.03;;
17207;SDS011;8720;48.488;9.202;2024-03-06T04:24:27;5.50;;;4.43;;
17207;SDS011;8720;48.488;9.202;2024-03-06T04:26:55;7.33;;;5.23;;
17207;SDS011;8720;48.488;9.202;2024-03-06T04:29:22;4.93;;;4.50;;
17207;SDS011;8720;48.488;9.202;2024-03-06T04:31:50;4.97;;;4.10;;
17207;SDS011;8720;48.488;9.202;2024-03-06T04:34:17;5.67;;;4.80;;
17207;SDS011;8720;48.488;9.202;2024-03-06T04:36:46;5.53;;;4.97;;
17207;SDS011;8720;48.488;9.202;2024-03-06T04:39:13;5.20;;;4.70;;
17207;SDS011;8720;48.488;9.202;2024-03-06T04:41:41;5.13;;;4.73;;
17207;SDS011;8720;48.488;9.202;2024-03-06T04:44:08;4.73;;;4.27;;
17207;SDS011;8720;48.488;9.202;2024-03-06T04:46:35;5.10;;;4.60;;
17207;SDS011;8720;48.488;9.202;2024-03-06T04:49:03;5.70;;;4.97;;
17207;SDS011;8720;48.488;9.202;2024-03-06T04:51:30;5.20;;;4.70;;
17207;SDS011;8720;48.488;9.202;2024-03-06T04:53:59;5.07;;;4.50;;
17207;SDS011;8720;48.488;9.202;2024-03-06T04:56:27;4.87;;;4.47;;
17207;SDS011;8720;48.488;9.202;2024-03-06T04:58:54;5.07;;;4.43;;
17207;SDS011;8720;48.488;9.202;2024-03-06T05:01:23;5.50;;;4.40;;
17207;SDS011;8720;48.488;9.202;2024-03-06T05:03:50;5.40;;;4.90;;
17207;SDS011;8720;48.488;9.202;2024-03-06T05:06:17;5.23;;;4.83;;
17207;SDS011;8720;48.488;9.202;2024-03-06T05:08:45;6.20;;;4.80;;
17207;SDS011;8720;48.488;9.202;2024-03-06T05:11:13;7.20;;;5.07;;
17207;SDS011;8720;48.488;9.202;2024-03-06T05:13:41;5.03;;;4.60;;
17207;SDS011;8720;48.488;9.202;2024-03-06T05:16:08;5.10;;;4.60;;
17207;SDS011;8720;48.488;9.202;2024-03-06T05:18:36;5.20;;;4.70;;
17207;SDS011;8720;48.488;9.202;2024-03-06T05:21:03;5.00;;;4.50;;
17207;SDS011;8720;48.488;9.202;2024-03-06T05:23:31;5.10;;;4.60;;
17207;SDS011;8720;48.488;9.202;2024-03-06T05:25:58;8.00;;;4.30;;
17207;SDS011;8720;48.488;9.202;2024-03-06T05:28:27;4.47;;;4.07;;
17207;SDS011;8720;48.488;9.202;2024-03-06T05:30:54;5.13;;;4.63;;
17207;SDS011;8720;48.488;9.202;2024-03-06T05:33:22;5.80;;;4.60;;
17207;SDS011;8720;48.488;9.202;2024-03-06T05:35:50;5.00;;;4.50;;
17207;SDS011;8720;48.488;9.202;2024-03-06T05:38:17;5.30;;;4.80;;
17207;SDS011;8720;48.488;9.202;2024-03-06T05:40:44;5.10;;;4.70;;
17207;SDS011;8720;48.488;9.202;2024-03-06T05:43:11;4.93;;;4.50;;
17207;SDS011;8720;48.488;9.202;2024-03-06T05:45:40;5.10;;;4.60;;
17207;SDS011;8720;48.488;9.202;2024-03-06T05:48:07;6.38;;;5.18;;
17207;SDS011;8720;48.488;9.202;2024-03-06T05:50:35;5.00;;;4.60;;
17207;SDS011;8720;48.488;9.202;2024-03-06T05:53:02;5.37;;;4.87;;
17207;SDS011;8720;48.488;9.202;2024-03-06T05:55:31;5.43;;;4.93;;
17207;SDS011;8720;48.488;9.202;2024-03-06T05:57:58;5.20;;;4.67;;
17207;SDS011;8720;48.488;9.202;2024-03-06T06:00:26;5.00;;;4.53;;
17207;SDS011;8720;48.488;9.202;2024-03-06T06:02:54;5.93;;;4.03;;
17207;SDS011;8720;48.488;9.202;2024-03-06T06:05:22;4.77;;;4.23;;
17207;SDS011;8720;48.488;9.202;2024-03-06T06:07:49;3.90;;;3.60;;
17207;SDS011;8720;48.488;9.202;2024-03-06T06:10:17;5.57;;;4.43;;
17207;SDS011;8720;48.488;9.202;2024-03-06T06:12:45;5.53;;;4.37;;
17207;SDS011;8720;48.488;9.202;2024-03-06T06:15:12;4.90;;;4.30;;
17207;SDS011;8720;48.488;9.202;2024-03-06T06:17:40;4.30;;;3.90;;
17207;SDS011;8720;48.488;9.202;2024-03-06T06:20:10;4.20;;;3.83;;
17207;SDS011;8720;48.488;9.202;2024-03-06T06:22:40;5.77;;;4.30;;
17207;SDS011;8720;48.488;9.202;2024-03-06T06:25:07;5.20;;;4.10;;
17207;SDS011;8720;48.488;9.202;2024-03-06T06:27:35;5.93;;;4.63;;
17207;SDS011;8720;48.488;9.202;2024-03-06T06:30:03;7.13;;;5.37;;
17207;SDS011;8720;48.488;9.202;2024-03-06T06:32:36;5.37;;;4.87;;
17207;SDS011;8720;48.488;9.202;2024-03-06T06:35:06;7.20;;;4.90;;
17207;SDS011;8720;48.488;9.202;2024-03-06T06:37:36;6.80;;;5.57;;
17207;SDS011;8720;48.488;9.202;2024-03-06T06:40:04;6.30;;;4.97;;
17207;SDS011;8720;48.488;9.202;2024-03-06T06:42:33;6.00;;;5.00;;
17207;SDS011;8720;48.488;9.202;2024-03-06T06:45:00;7.17;;;4.90;;
17207;SDS011;8720;48.488;9.202;2024-03-06T06:47:28;7.70;;;5.23;;
17207;SDS011;8720;48.488;9.202;2024-03-06T06:49:56;4.90;;;4.40;;
17207;SDS011;8720;48.488;9.202;2024-03-06T06:52:23;4.93;;;4.53;;
17207;SDS011;8720;48.488;9.202;2024-03-06T06:54:54;5.83;;;4.97;;
17207;SDS011;8720;48.488;9.202;2024-03-06T06:57:21;4.60;;;4.20;;
17207;SDS011;8720;48.488;9.202;2024-03-06T06:59:48;6.83;;;5.00;;
17207;SDS011;8720;48.488;9.202;2024-03-06T07:02:16;5.50;;;4.70;;
17207;SDS011;8720;48.488;9.202;2024-03-06T07:04:43;4.80;;;4.30;;
17207;SDS011;8720;48.488;9.202;2024-03-06T07:07:11;4.93;;;4.43;;
17207;SDS011;8720;48.488;9.202;2024-03-06T07:09:39;5.83;;;4.60;;
17207;SDS011;8720;48.488;9.202;2024-03-06T07:12:08;5.00;;;4.50;;
17207;SDS011;8720;48.488;9.202;2024-03-06T07:14:35;7.00;;;5.73;;
17207;SDS011;8720;48.488;9.202;2024-03-06T07:17:02;5.23;;;4.73;;
17207;SDS011;8720;48.488;9.202;2024-03-06T07:19:30;7.10;;;5.13;;
17207;SDS011;8720;48.488;9.202;2024-03-06T07:21:57;5.63;;;5.07;;
17207;SDS011;8720;48.488;9.202;2024-03-06T07:24:25;5.63;;;4.93;;
17207;SDS011;8720;48.488;9.202;2024-03-06T07:26:52;6.70;;;5.53;;
17207;SDS011;8720;48.488;9.202;2024-03-06T07:29:21;7.83;;;4.93;;
17207;SDS011;8720;48.488;9.202;2024-03-06T07:31:48;9.10;;;6.33;;
17207;SDS011;8720;48.488;9.202;2024-03-06T07:34:15;8.43;;;6.33;;
17207;SDS011;8720;48.488;9.202;2024-03-06T07:36:44;8.13;;;5.73;;
17207;SDS011;8720;48.488;9.202;2024-03-06T07:39:12;7.00;;;5.87;;
17207;SDS011;8720;48.488;9.202;2024-03-06T07:41:39;5.97;;;5.37;;
17207;SDS011;8720;48.488;9.202;2024-03-06T07:44:07;6.30;;;5.20;;
17207;SDS011;8720;48.488;9.202;2024-03-06T07:46:35;6.63;;;5.40;;
17207;SDS011;8720;48.488;9.202;2024-03-06T07:49:03;6.40;;;5.20;;
17207;SDS011;8720;48.488;9.202;2024-03-06T07:51:31;6.70;;;5.17;;
17207;SDS011;8720;48.488;9.202;2024-03-06T07:53:59;6.80;;;5.40;;
17207;SDS011;8720;48.488;9.202;2024-03-06T07:56:26;5.30;;;4.77;;
17207;SDS011;8720;48.488;9.202;2024-03-06T07:58:54;6.20;;;5.60;;
17207;SDS011;8720;48.488;9.202;2024-03-06T08:01:22;7.70;;;5.40;;
17207;SDS011;8720;48.488;9.202;2024-03-06T08:03:52;5.63;;;5.13;;
17207;SDS011;8720;48.488;9.202;2024-03-06T08:06:19;8.13;;;5.07;;
17207;SDS011;8720;48.488;9.202;2024-03-06T08:08:46;5.30;;;4.87;;
17207;SDS011;8720;48.488;9.202;2024-03-06T08:11:14;5.50;;;4.90;;
17207;SDS011;8720;48.488;9.202;2024-03-06T08:13:43;6.53;;;5.40;;
17207;SDS011;8720;48.488;9.202;2024-03-06T08:16:10;5.97;;;5.47;;
17207;SDS011;8720;48.488;9.202;2024-03-06T08:18:38;5.27;;;4.83;;
17207;SDS011;8720;48.488;9.202;2024-03-06T08:21:06;6.63;;;4.97;;
17207;SDS011;8720;48.488;9.202;2024-03-06T08:23:34;6.40;;;5.20;;
17207;SDS011;8720;48.488;9.202;2024-03-06T08:26:01;6.37;;;5.47;;
17207;SDS011;8720;48.488;9.202;2024-03-06T08:28:29;6.83;;;5.80;;
17207;SDS011;8720;48.488;9.202;2024-03-06T08:30:57;8.70;;;5.53;;
17207;SDS011;8720;48.488;9.202;2024-03-06T08:33:26;5.60;;;5.03;;
17207;SDS011;8720;48.488;9.202;2024-03-06T08:35:53;5.50;;;5.00;;
17207;SDS011;8720;48.488;9.202;2024-03-06T08:38:22;7.53;;;5.53;;
17207;SDS011;8720;48.488;9.202;2024-03-06T08:40:50;7.60;;;5.47;;
17207;SDS011;8720;48.488;9.202;2024-03-06T08:43:17;6.90;;;4.83;;
17207;SDS011;8720;48.488;9.202;2024-03-06T08:45:45;6.33;;;5.30;;
17207;SDS011;8720;48.488;9.202;2024-03-06T08:48:13;5.80;;;5.10;;
17207;SDS011;8720;48.488;9.202;2024-03-06T08:50:40;6.37;;;5.60;;
17207;SDS011;8720;48.488;9.202;2024-03-06T08:53:08;8.00;;;5.20;;
17207;SDS011;8720;48.488;9.202;2024-03-06T08:55:37;8.00;;;5.70;;
17207;SDS011;8720;48.488;9.202;2024-03-06T08:58:04;6.07;;;4.77;;
17207;SDS011;8720;48.488;9.202;2024-03-06T09:00:32;6.10;;;4.90;;
17207;SDS011;8720;48.488;9.202;2024-03-06T09:02:59;7.87;;;5.30;;
17207;SDS011;8720;48.488;9.202;2024-03-06T09:05:27;8.70;;;5.27;;
17207;SDS011;8720;48.488;9.202;2024-03-06T09:07:54;6.50;;;5.40;;
17207;SDS011;8720;48.488;9.202;2024-03-06T09:10:22;6.57;;;5.43;;
17207;SDS011;8720;48.488;9.202;2024-03-06T09:12:51;8.70;;;5.33;;
17207;SDS011;8720;48.488;9.202;2024-03-06T09:15:19;7.53;;;6.33;;
17207;SDS011;8720;48.488;9.202;2024-03-06T09:17:46;7.53;;;5.83;;
17207;SDS011;8720;48.488;9.202;2024-03-06T09:20:13;7.53;;;5.60;;
17207;SDS011;8720;48.488;9.202;2024-03-06T09:22:41;8.47;;;6.73;;
17207;SDS011;8720;48.488;9.202;2024-03-06T09:25:09;8.23;;;6.63;;
17207;SDS011;8720;48.488;9.202;2024-03-06T09:27:39;10.60;;;7.40;;
17207;SDS011;8720;48.488;9.202;2024-03-06T09:30:09;10.23;;;7.53;;
17207;SDS011;8720;48.488;9.202;2024-03-06T09:32:38;7.33;;;6.60;;
17207;SDS011;8720;48.488;9.202;2024-03-06T09:35:07;10.23;;;7.47;;
17207;SDS011;8720;48.488;9.202;2024-03-06T09:37:35;13.13;;;7.10;;
17207;SDS011;8720;48.488;9.202;2024-03-06T09:40:02;10.07;;;5.97;;
17207;SDS011;8720;48.488;9.202;2024-03-06T09:42:32;8.63;;;5.30;;
17207;SDS011;8720;48.488;9.202;2024-03-06T09:45:00;6.37;;;5.60;;
17207;SDS011;8720;48.488;9.202;2024-03-06T09:47:29;7.57;;;6.03;;
17207;SDS011;8720;48.488;9.202;2024-03-06T09:50:02;6.73;;;5.77;;
17207;SDS011;8720;48.488;9.202;2024-03-06T09:52:34;6.93;;;6.23;;
17207;SDS011;8720;48.488;9.202;2024-03-06T09:55:06;11.10;;;5.77;;
17207;SDS011;8720;48.488;9.202;2024-03-06T09:57:35;8.80;;;5.47;;
17207;SDS011;8720;48.488;9.202;2024-03-06T10:00:03;7.00;;;5.90;;
17207;SDS011;8720;48.488;9.202;2024-03-06T10:02:38;9.43;;;5.50;;
17207;SDS011;8720;48.488;9.202;2024-03-06T10:05:20;5.67;;;5.07;;
17207;SDS011;8720;48.488;9.202;2024-03-06T10:07:49;6.33;;;5.17;;
17207;SDS011;8720;48.488;9.202;2024-03-06T10:10:18;7.13;;;5.30;;
17207;SDS011;8720;48.488;9.202;2024-03-06T10:12:51;5.63;;;5.10;;
17207;SDS011;8720;48.488;9.202;2024-03-06T10:15:27;7.53;;;6.00;;
17207;SDS011;8720;48.488;9.202;2024-03-06T10:20:48;7.47;;;6.57;;
17207;SDS011;8720;48.488;9.202;2024-03-06T10:23:17;5.40;;;4.50;;
17207;SDS011;8720;48.488;9.202;2024-03-06T10:25:46;5.70;;;5.17;;
17207;SDS011;8720;48.488;9.202;2024-03-06T10:28:17;5.23;;;4.67;;
17207;SDS011;8720;48.488;9.202;2024-03-06T10:30:48;5.77;;;4.80;;
17207;SDS011;8720;48.488;9.202;2024-03-06T10:33:17;9.50;;;5.20;;
17207;SDS011;8720;48.488;9.202;2024-03-06T10:35:45;5.83;;;4.60;;
17207;SDS011;8720;48.488;9.202;2024-03-06T10:38:16;4.80;;;4.40;;
17207;SDS011;8720;48.488;9.202;2024-03-06T10:40:48;5.60;;;5.00;;
17207;SDS011;8720;48.488;9.202;2024-03-06T10:43:17;5.13;;;4.60;;
17207;SDS011;8720;48.488;9.202;2024-03-06T10:45:48;6.50;;;5.43;;
17207;SDS011;8720;48.488;9.202;2024-03-06T10:48:18;6.73;;;5.80;;
17207;SDS011;8720;48.488;9.202;2024-03-06T10:50:46;5.57;;;4.97;;
17207;SDS011;8720;48.488;9.202;2024-03-06T10:53:17;7.07;;;6.00;;
17207;SDS011;8720;48.488;9.202;2024-03-06T10:55:46;7.93;;;5.73;;
17207;SDS011;8720;48.488;9.202;2024-03-06T10:58:15;5.97;;;5.37;;
17207;SDS011;8720;48.488;9.202;2024-03-06T11:00:45;8.50;;;6.87;;
17207;SDS011;8720;48.488;9.202;2024-03-06T11:03:14;7.87;;;6.20;;
17207;SDS011;8720;48.488;9.202;2024-03-06T11:05:43;8.27;;;7.47;;
17207;SDS011;8720;48.488;9.202;2024-03-06T11:08:13;8.27;;;6.63;;
17207;SDS011;8720;48.488;9.202;2024-03-06T11:10:42;9.00;;;7.03;;
17207;SDS011;8720;48.488;9.202;2024-03-06T11:13:20;7.70;;;6.50;;
17207;SDS011;8720;48.488;9.202;2024-03-06T11:15:50;7.50;;;6.70;;
17207;SDS011;8720;48.488;9.202;2024-03-06T11:21:28;6.53;;;5.93;;
17207;SDS011;8720;48.488;9.202;2024-03-06T11:24:13;9.67;;;6.57;;
17207;SDS011;8720;48.488;9.202;2024-03-06T11:26:54;8.23;;;6.90;;
17207;SDS011;8720;48.488;9.202;2024-03-06T11:29:24;8.17;;;7.00;;
17207;SDS011;8720;48.488;9.202;2024-03-06T11:31:59;8.30;;;6.90;;
17207;SDS011;8720;48.488;9.202;2024-03-06T11:34:35;8.20;;;6.73;;
17207;SDS011;8720;48.488;9.202;2024-03-06T11:37:04;8.37;;;6.90;;
17207;SDS011;8720;48.488;9.202;2024-03-06T11:39:36;7.93;;;7.13;;
17207;SDS011;8720;48.488;9.202;2024-03-06T11:42:06;10.60;;;7.37;;
17207;SDS011;8720;48.488;9.202;2024-03-06T11:44:34;8.20;;;7.40;;
17207;SDS011;8720;48.488;9.202;2024-03-06T11:47:03;9.30;;;7.53;;
17207;SDS011;8720;48.488;9.202;2024-03-06T11:49:34;9.03;;;7.27;;
17207;SDS011;8720;48.488;9.202;2024-03-06T11:52:03;7.37;;;6.70;;
17207;SDS011;8720;48.488;9.202;2024-03-06T11:54:33;8.67;;;7.70;;
17207;SDS011;8720;48.488;9.202;2024-03-06T11:57:03;8.07;;;7.10;;
17207;SDS011;8720;48.488;9.202;2024-03-06T11:59:32;8.97;;;8.07;;
17207;SDS011;8720;48.488;9.202;2024-03-06T12:02:01;8.33;;;7.43;;
17207;SDS011;8720;48.488;9.202;2024-03-06T12:04:31;10.33;;;8.17;;
17207;SDS011;8720;48.488;9.202;2024-03-06T12:07:01;9.60;;;8.10;;
17207;SDS011;8720;48.488;9.202;2024-03-06T12:09:31;9.03;;;7.90;;
17207;SDS011;8720;48.488;9.202;2024-03-06T12:12:01;12.63;;;8.03;;
17207;SDS011;8720;48.488;9.202;2024-03-06T12:14:29;9.80;;;8.80;;
17207;SDS011;8720;48.488;9.202;2024-03-06T12:16:56;10.83;;;8.30;;
17207;SDS011;8720;48.488;9.202;2024-03-06T12:19:25;8.97;;;7.83;;
17207;SDS011;8720;48.488;9.202;2024-03-06T12:21:55;9.63;;;8.63;;
17207;SDS011;8720;48.488;9.202;2024-03-06T12:24:25;10.73;;;8.77;;
17207;SDS011;8720;48.488;9.202;2024-03-06T12:26:59;10.80;;;9.27;;
17207;SDS011;8720;48.488;9.202;2024-03-06T12:29:30;9.83;;;8.50;;
17207;SDS011;8720;48.488;9.202;2024-03-06T12:31:59;11.57;;;9.47;;
17207;SDS011;8720;48.488;9.202;2024-03-06T12:34:27;10.87;;;9.57;;
17207;SDS011;8720;48.488;9.202;2024-03-06T12:36:55;13.57;;;9.43;;
17207;SDS011;8720;48.488;9.202;2024-03-06T12:39:23;11.10;;;9.87;;
17207;SDS011;8720;48.488;9.202;2024-03-06T12:41:51;13.33;;;10.27;;
17207;SDS011;8720;48.488;9.202;2024-03-06T12:44:20;11.63;;;10.40;;
17207;SDS011;8720;48.488;9.202;2024-03-06T12:46:47;11.10;;;10.00;;
17207;SDS011;8720;48.488;9.202;2024-03-06T12:49:15;10.90;;;9.80;;
17207;SDS011;8720;48.488;9.202;2024-03-06T12:51:44;11.53;;;10.33;;
17207;SDS011;8720;48.488;9.202;2024-03-06T12:54:11;12.17;;;10.40;;
17207;SDS011;8720;48.488;9.202;2024-03-06T12:56:38;11.07;;;9.07;;
17207;SDS011;8720;48.488;9.202;2024-03-06T12:59:07;10.43;;;8.97;;
17207;SDS011;8720;48.488;9.202;2024-03-06T13:01:37;11.40;;;10.13;;
17207;SDS011;8720;48.488;9.202;2024-03-06T13:04:04;12.90;;;9.80;;
17207;SDS011;8720;48.488;9.202;2024-03-06T13:06:33;12.73;;;11.20;;
17207;SDS011;8720;48.488;9.202;2024-03-06T13:09:00;12.63;;;11.17;;
17207;SDS011;8720;48.488;9.202;2024-03-06T13:11:28;14.37;;;11.97;;
17207;SDS011;8720;48.488;9.202;2024-03-06T13:13:55;13.33;;;10.93;;
17207;SDS011;8720;48.488;9.202;2024-03-06T13:16:23;11.80;;;10.60;;
17207;SDS011;8720;48.488;9.202;2024-03-06T13:18:52;11.50;;;10.30;;
17207;SDS011;8720;48.488;9.202;2024-03-06T13:21:22;12.37;;;10.50;;
17207;SDS011;8720;48.488;9.202;2024-03-06T13:23:49;11.47;;;9.80;;
17207;SDS011;8720;48.488;9.202;2024-03-06T13:26:17;11.50;;;10.30;;
17207;SDS011;8720;48.488;9.202;2024-03-06T13:28:43;11.00;;;9.70;;
17207;SDS011;8720;48.488;9.202;2024-03-06T13:31:11;12.80;;;10.70;;
17207;SDS011;8720;48.488;9.202;2024-03-06T13:33:39;13.00;;;11.10;;
17207;SDS011;8720;48.488;9.202;2024-03-06T13:36:08;16.20;;;11.40;;
17207;SDS011;8720;48.488;9.202;2024-03-06T13:38:35;11.90;;;10.13;;
17207;SDS011;8720;48.488;9.202;2024-03-06T13:41:03;12.33;;;10.43;;
17207;SDS011;8720;48.488;9.202;2024-03-06T13:43:31;11.97;;;10.60;;
17207;SDS011;8720;48.488;9.202;2024-03-06T13:45:58;13.27;;;11.30;;
17207;SDS011;8720;48.488;9.202;2024-03-06T13:48:26;14.20;;;10.90;;
17207;SDS011;8720;48.488;9.202;2024-03-06T13:50:53;13.00;;;11.07;;
17207;SDS011;8720;48.488;9.202;2024-03-06T13:53:22;12.90;;;11.13;;
17207;SDS011;8720;48.488;9.202;2024-03-06T13:55:49;13.00;;;11.20;;
17207;SDS011;8720;48.488;9.202;2024-03-06T13:58:17;15.37;;;11.30;;
17207;SDS011;8720;48.488;9.202;2024-03-06T14:00:45;12.60;;;10.37;;
17207;SDS011;8720;48.488;9.202;2024-03-06T14:03:12;11.53;;;10.27;;
17207;SDS011;8720;48.488;9.202;2024-03-06T14:05:39;13.93;;;11.27;;
17207;SDS011;8720;48.488;9.202;2024-03-06T14:08:07;15.13;;;11.23;;
17207;SDS011;8720;48.488;9.202;2024-03-06T14:10:38;13.50;;;10.83;;
17207;SDS011;8720;48.488;9.202;2024-03-06T14:13:06;13.50;;;12.07;;
17207;SDS011;8720;48.488;9.202;2024-03-06T14:15:33;13.57;;;11.53;;
17207;SDS011;8720;48.488;9.202;2024-03-06T14:18:01;14.83;;;12.73;;
17207;SDS011;8720;48.488;9.202;2024-03-06T14:20:29;16.63;;;13.47;;
17207;SDS011;8720;48.488;9.202;2024-03-06T14:22:58;14.13;;;12.03;;
17207;SDS011;8720;48.488;9.202;2024-03-06T14:25:25;15.57;;;12.90;;
17207;SDS011;8720;48.488;9.202;2024-03-06T14:27:55;14.00;;;11.87;;
17207;SDS011;8720;48.488;9.202;2024-03-06T14:30:24;15.07;;;12.43;;
17207;SDS011;8720;48.488;9.202;2024-03-06T14:32:52;13.87;;;11.53;;
17207;SDS011;8720;48.488;9.202;2024-03-06T14:35:20;14.33;;;11.53;;
17207;SDS011;8720;48.488;9.202;2024-03-06T14:37:47;12.53;;;10.33;;
17207;SDS011;8720;48.488;9.202;2024-03-06T14:40:15;14.20;;;11.30;;
17207;SDS011;8720;48.488;9.202;2024-03-06T14:42:46;12.97;;;11.47;;
17207;SDS011;8720;48.488;9.202;2024-03-06T14:45:16;14.00;;;11.40;;
17207;SDS011;8720;48.488;9.202;2024-03-06T14:47:43;13.03;;;11.47;;
17207;SDS011;8720;48.488;9.202;2024-03-06T14:50:11;15.63;;;12.80;;
17207;SDS011;8720;48.488;9.202;2024-03-06T14:52:39;14.20;;;12.23;;
17207;SDS011;8720;48.488;9.202;2024-03-06T14:55:07;13.77;;;12.07;;
17207;SDS011;8720;48.488;9.202;2024-03-06T14:57:35;15.23;;;12.43;;
17207;SDS011;8720;48.488;9.202;2024-03-06T15:00:03;19.10;;;12.90;;
17207;SDS011;8720;48.488;9.202;2024-03-06T15:02:35;14.13;;;11.73;;
17207;SDS011;8720;48.488;9.202;2024-03-06T15:05:03;17.13;;;13.87;;
17207;SDS011;8720;48.488;9.202;2024-03-06T15:07:32;15.10;;;12.40;;
17207;SDS011;8720;48.488;9.202;2024-03-06T15:09:59;12.87;;;11.50;;
17207;SDS011;8720;48.488;9.202;2024-03-06T15:12:27;15.97;;;12.73;;
17207;SDS011;8720;48.488;9.202;2024-03-06T15:14:55;13.93;;;12.23;;
17207;SDS011;8720;48.488;9.202;2024-03-06T15:17:23;16.37;;;12.47;;
17207;SDS011;8720;48.488;9.202;2024-03-06T15:19:53;18.23;;;13.80;;
17207;SDS011;8720;48.488;9.202;2024-03-06T15:22:22;15.73;;;12.20;;
17207;SDS011;8720;48.488;9.202;2024-03-06T15:24:50;14.90;;;12.20;;
17207;SDS011;8720;48.488;9.202;2024-03-06T15:27:17;14.13;;;12.20;;
17207;SDS011;8720;48.488;9.202;2024-03-06T15:29:45;13.90;;;11.40;;